Tallmadge, Ohio
Current Conditions -  °F | °C
As of 6:54 AM on Monday 22 Dec 2014 (Local Time) from KAKR Reporting Station
Clear Clear  
Wind Chill: 25°   Ceiling: Unl
Heat Index: 25°   Visibility: 7mi
Dew Point: 20°   Wind: 0mph
Humidity: 81%   Direction: NA
Pressure: 30.09"   Gusts: NA
Location:  41.1°N, 81.44°W
Report Text: KAKR 221154Z AUTO 00000KT 7SM CLR M04/M07 A3009 RMK AO2 SLP201 T10391067 11028 21050 58005 $
Loading
Personal Weather Stations






























Interactive Weather Map New forecast layout! Learn more

10-Day Weather Forecast

Advertisements
Track Severe Weather on mobile